Flight Track Log - Related Links

Times and Time Zones

All times are in EDT time to prevent confusion due to time zone crossing. See the N935SS flight status page for this flight to view local times or setup timezone preferences in your user account.

Time Position Orientation Groundspeed Altitude Reporting Facility
EDT Latitude Longitude Course Direction KTS MPH feet Rate Location/Type
Fri 06:48:21 AM 41.0500 -73.7000 270° West 160 184 1,800  Level New York TRACON
Fri 06:49:15 AM 41.0500 -73.7333 270° West 196 226 3,600 2,158 Climbing New York TRACON
Fri 06:50:15 AM 41.0833 -73.8000 304° West 233 268 5,900 2,048 Climbing New York TRACON
Fri 06:51:21 AM 41.0333 -73.8667 225° Southwest 233 268 7,900 1,100 Climbing New York TRACON
Fri 06:52:15 AM 40.9833 -73.8500 166° South 248 285 8,100 100 Climbing New York TRACON
Fri 06:53:21 AM 40.9000 -73.8333 171° South 254 292 8,100 400 Level New York TRACON
Fri 06:54:15 AM 40.8500 -73.7833 143° Southeast 262 302 8,900 1,472 Climbing New York TRACON
Fri 06:56:00 AM 40.7486 -73.6856 144° Southeast 305 351 12,000 1,573 Climbing New York Center
Fri 06:56:59 AM 40.6653 -73.5972 141° Southeast 336 387 13,200 1,815 Climbing New York Center
Fri 06:57:59 AM 40.5942 -73.5261 143° Southeast 354 407 15,600 2,331 Climbing New York Center
Fri 06:59:00 AM 40.5189 -73.4439 140° Southeast 361 415 17,900 2,231 Climbing New York Center
Fri 07:00:00 AM 40.4396 -73.3449 128° Southeast  Level Estimated
Fri 07:00:00 AM 40.4397 -73.3508 129° Southeast 356 410 20,100  Level New York Center
Fri 07:01:59 AM 40.3000 -73.1606 134° Southeast 363 418 23,900 1,867 Climbing New York Center
Fri 07:03:00 AM 40.2269 -73.0628 134° Southeast 369 425 25,700 1,765 Climbing New York Center
Fri 07:03:58 AM 40.1558 -72.9653 134° Southeast 369 425 27,400 1,500 Climbing New York Center
Fri 07:05:00 AM 40.0786 -72.8653 135° Southeast 374 430 28,700 1,150 Climbing New York Center
Fri 07:05:58 AM 40.0033 -72.7628 134° Southeast 379 436 29,700 1,017 Climbing New York Center
Fri 07:06:58 AM 39.9239 -72.6547 134° Southeast 395 455 30,700 645 Climbing New York Center
Fri 07:07:00 AM 39.9351 -72.5894 129° Southeast  Level FlightAware Approximate
Fri 07:07:59 AM 39.8400 -72.5444 135° Southeast 407 468 31,000  Level New York Center
Fri 07:08:59 AM 39.7522 -72.4286 135° Southeast 432 497 31,000  Level New York Center
Fri 07:09:59 AM 39.6622 -72.3081 134° Southeast 445 512 31,000  Level New York Center
Fri 07:11:00 AM 39.5761 -72.1956 135° Southeast 471 542 31,000  Level New York Center
Fri 07:11:59 AM 39.4878 -72.0753 134° Southeast 471 542 31,000  Level New York Center
Fri 07:12:58 AM 39.3953 -71.9556 135° Southeast 471 542 31,000  Level New York Center
Fri 07:13:59 AM 39.3028 -71.8358 135° Southeast 471 542 31,000  Level New York Center
Fri 07:15:00 AM 39.2100 -71.7164 135° Southeast 471 542 31,000  Level New York Center
Fri 07:15:58 AM 39.1192 -71.5975 135° Southeast 471 542 31,000  Level New York Center
Fri 07:16:59 AM 39.0261 -71.4842 137° Southeast 466 536 31,000  Level New York Center
Fri 07:18:00 AM 38.9350 -71.3656 135° Southeast 466 536 31,000  Level New York Center
Fri 07:18:58 AM 38.8439 -71.2475 135° Southeast 466 536 31,000  Level New York Center
Fri 07:19:59 AM 38.7506 -71.1297 135° Southeast 466 536 31,000  Level New York Center
Fri 07:21:00 AM 38.6592 -71.0122 135° Southeast 466 536 31,000  Level New York Center
Fri 07:22:00 AM 38.5633 -70.8950 136° Southeast 466 536 31,000  Level New York Center
Fri 07:23:00 AM 38.4739 -70.7700 132° Southeast 466 536 31,000  Level New York Center
Fri 07:23:58 AM 38.3800 -70.6589 137° Southeast 466 536 31,000  Level New York Center
Fri 07:25:01 AM 38.2756 -70.5319 136° Southeast 461 531 31,000  Level New York Center
Fri 07:25:58 AM 38.1961 -70.4344 136° Southeast 461 531 31,000  Level New York Center
Fri 07:26:59 AM 38.0894 -70.3108 138° Southeast 461 531 31,000  Level New York Center
Fri 07:27:59 AM 38.0453 -70.2372 127° Southeast 461 531 31,000  Level New York Center
Fri 07:29:00 AM 37.9297 -70.0589 129° Southeast 469 540 31,000  Level New York Center
Fri 07:30:29 AM 38.1333 -70.3667 133° Southeast 481 554 31,000  Level New York Oceanic (ODAPS)
Fri 07:36:00 AM 37.2162 -69.1307 134° Southeast 481 554 31,000  Level FlightAware Transoceanic
Fri 07:37:00 AM 37.1238 -69.0087 134° Southeast 481 554 31,000  Level FlightAware Transoceanic
Fri 07:38:00 AM 37.0312 -68.8871 134° Southeast 481 554 31,000  Level FlightAware Transoceanic
Fri 07:39:00 AM 36.9385 -68.7658 134° Southeast 481 554 31,000  Level FlightAware Transoceanic
Fri 07:40:00 AM 36.8458 -68.6447 134° Southeast 481 554 31,000  Level FlightAware Transoceanic
Fri 07:41:00 AM 36.7528 -68.5240 134° Southeast 481 554 31,000  Level FlightAware Transoceanic
Fri 07:42:00 AM 36.6598 -68.4035 134° Southeast 481 554 31,000  Level FlightAware Transoceanic
Fri 07:43:00 AM 36.5667 -68.2833 142° Southeast 481 554 31,000  Level FlightAware Transoceanic
Fri 07:44:00 AM 36.4673 -68.1863 142° Southeast 481 554 31,000  Level FlightAware Transoceanic
Fri 07:44:50 AM 36.5667 -68.2833 142° Southeast 429 494 31,000  Level New York Oceanic (ODAPS)
Fri 07:45:00 AM 36.3678 -68.0895 142° Southeast 481 554 31,000  Level FlightAware Transoceanic
Fri 07:46:00 AM 36.2683 -67.9930 142° Southeast 481 554 31,000  Level FlightAware Transoceanic
Fri 07:47:00 AM 36.1686 -67.8967 142° Southeast 481 554 31,000  Level FlightAware Transoceanic
Fri 07:48:00 AM 36.0689 -67.8006 142° Southeast 481 554 31,000  Level FlightAware Transoceanic
Fri 07:49:00 AM 35.9692 -67.7048 142° Southeast 481 554 31,000  Level FlightAware Transoceanic
Fri 07:50:00 AM 35.8693 -67.6093 142° Southeast 481 554 31,000  Level FlightAware Transoceanic
Fri 07:51:00 AM 35.8138 -67.5563 142° Southeast 429 494 31,000  Level FlightAware Transoceanic
Fri 07:52:00 AM 35.7194 -67.4664 142° Southeast 429 494 31,000  Level FlightAware Transoceanic
Fri 07:53:00 AM 35.6249 -67.3767 142° Southeast 429 494 31,000  Level FlightAware Transoceanic
Fri 07:54:00 AM 35.5303 -67.2872 142° Southeast 429 494 31,000  Level FlightAware Transoceanic
Fri 07:55:00 AM 35.4357 -67.1979 142° Southeast 429 494 31,000  Level FlightAware Transoceanic
Fri 07:56:00 AM 35.3410 -67.1089 143° Southeast 429 494 31,000  Level FlightAware Transoceanic
Fri 07:57:00 AM 35.2463 -67.0200 143° Southeast 429 494 31,000  Level FlightAware Transoceanic
Fri 07:58:00 AM 35.1515 -66.9314 143° Southeast 429 494 31,000  Level FlightAware Transoceanic
Fri 07:59:00 AM 35.0566 -66.8429 143° Southeast 429 494 31,000  Level FlightAware Transoceanic
Fri 08:00:00 AM 34.9617 -66.7547 143° Southeast 429 494 31,000 -632 Level FlightAware Transoceanic
Fri 08:00:35 AM 34.8667 -66.6667 146° Southeast 372 428 30,000  Descending New York Oceanic (ODAPS)
Fri 08:01:00 AM 34.8667 -66.6667 146° Southeast 429 494 31,000 706 Climbing FlightAware Transoceanic
Fri 08:02:00 AM 34.7631 -66.5817 146° Southeast 429 494 31,000  Level FlightAware Transoceanic
Fri 08:03:00 AM 34.6596 -66.4969 146° Southeast 429 494 31,000  Level FlightAware Transoceanic
Fri 08:04:00 AM 34.5559 -66.4123 146° Southeast 429 494 31,000  Level FlightAware Transoceanic
Fri 08:05:00 AM 34.4522 -66.3280 146° Southeast 429 494 31,000  Level FlightAware Transoceanic
Fri 08:06:00 AM 34.3485 -66.2439 146° Southeast 429 494 31,000 -500 Level FlightAware Transoceanic
Fri 08:07:00 AM 34.2662 -66.1773 146° Southeast 372 428 30,000 -500 Descending FlightAware Transoceanic
Fri 08:08:00 AM 34.1802 -66.1079 146° Southeast 372 428 30,000  Level FlightAware Transoceanic
Fri 08:09:00 AM 34.0942 -66.0387 146° Southeast 372 428 30,000  Level FlightAware Transoceanic
Fri 08:10:00 AM 34.0082 -65.9697 146° Southeast 372 428 30,000  Level FlightAware Transoceanic
Fri 08:11:00 AM 33.9221 -65.9007 146° Southeast 372 428 30,000  Level FlightAware Transoceanic
Fri 08:12:00 AM 33.8360 -65.8320 146° Southeast 372 428 30,000  Level FlightAware Transoceanic
Fri 08:13:00 AM 33.7499 -65.7633 147° Southeast 372 428 30,000  Level FlightAware Transoceanic
Fri 08:14:00 AM 33.6637 -65.6948 147° Southeast 372 428 30,000  Level FlightAware Transoceanic
Fri 08:15:00 AM 33.5775 -65.6264 147° Southeast 372 428 30,000  Level FlightAware Transoceanic
Fri 08:16:00 AM 33.4913 -65.5582 147° Southeast 372 428 30,000  Level FlightAware Transoceanic
Fri 08:17:00 AM 33.4050 -65.4901 147° Southeast 372 428 30,000  Level FlightAware Transoceanic
Fri 08:18:00 AM 33.3186 -65.4222 147° Southeast 372 428 30,000  Level FlightAware Transoceanic
Fri 08:19:00 AM 33.2323 -65.3543 147° Southeast 372 428 30,000  Level FlightAware Transoceanic
Fri 08:20:00 AM 33.1459 -65.2866 147° Southeast 372 428 30,000  Level FlightAware Transoceanic
Fri 08:21:00 AM 33.0594 -65.2191 147° Southeast 372 428 30,000  Level FlightAware Transoceanic
Fri 08:22:00 AM 32.9730 -65.1517 147° Southeast 372 428 30,000  Level FlightAware Transoceanic
Fri 08:23:00 AM 32.5678 -64.8379 147° Southeast 373 429 30,000 -19,742 Level FlightAware Transoceanic
Fri 08:23:02 AM 34.8667 -66.6667 146° Southeast 373 429 9,600  Descending New York Oceanic (ODAPS)
Fri 08:24:00 AM 32.4673 -64.7605 147° Southeast 373 429 30,000 21,103 Climbing FlightAware Transoceanic
Fri 08:25:00 AM 32.4689 -64.7725 148° Southeast  Level FlightAware Approximate
Fri 08:26:00 AM 32.3727 -64.7003 148° Southeast  Level FlightAware Approximate
Fri 08:27:00 AM 32.3640 -64.6787 90° East  Level Estimated
Fri 08:28:00 AM 32.3640 -64.6787 90° East  Level Estimated
Fri 08:29:00 AM 34.2993 -66.2121 146° Southeast  Level FlightAware Approximate
Fri 08:30:00 AM 34.2185 -66.1480 147° Southeast  Level FlightAware Approximate
Fri 08:31:00 AM 34.1390 -66.0816 145° Southeast  Level FlightAware Approximate
Fri 08:32:00 AM 34.0598 -66.0146 145° Southeast  Level FlightAware Approximate
Fri 08:33:00 AM 33.9806 -65.9478 146° Southeast  Level FlightAware Approximate
Fri 08:34:00 AM 33.9005 -65.8828 146° Southeast  Level FlightAware Approximate
Fri 08:35:00 AM 33.8202 -65.8178 146° Southeast  Level FlightAware Approximate
Fri 08:36:00 AM 33.7400 -65.7530 146° Southeast  Level FlightAware Approximate
Fri 08:37:00 AM 33.6597 -65.6883 146° Southeast  Level FlightAware Approximate
Fri 08:38:00 AM 33.5794 -65.6237 146° Southeast  Level FlightAware Approximate
Fri 08:39:00 AM 33.4991 -65.5593 146° Southeast  Level FlightAware Approximate
Fri 08:40:00 AM 33.4181 -65.4961 147° Southeast  Level FlightAware Approximate
Fri 08:41:00 AM 33.3367 -65.4337 147° Southeast  Level FlightAware Approximate
Fri 08:42:00 AM 33.2552 -65.3715 147° Southeast  Level FlightAware Approximate
Fri 08:43:00 AM 33.1738 -65.3092 147° Southeast  Level FlightAware Approximate
Fri 08:44:00 AM 33.0929 -65.2460 147° Southeast  Level FlightAware Approximate
Fri 08:45:00 AM 33.0120 -65.1830 147° Southeast  Level FlightAware Approximate
Fri 08:46:00 AM 32.9310 -65.1200 147° Southeast  Level FlightAware Approximate
Fri 08:47:00 AM 32.8501 -65.0572 147° Southeast  Level FlightAware Approximate
Fri 08:48:00 AM 32.7691 -64.9945 147° Southeast  Level FlightAware Approximate
Fri 08:49:00 AM 32.6880 -64.9319 147° Southeast  Level FlightAware Approximate
Fri 08:50:00 AM 32.6069 -64.8694 147° Southeast  Level FlightAware Approximate
Fri 08:51:00 AM 32.5258 -64.8070 147° Southeast  Level FlightAware Approximate
Fri 08:52:00 AM 32.4415 -64.7519 148° Southeast  Level FlightAware Approximate
Fri 08:53:00 AM 32.3598 -64.6907 148° Southeast  Level FlightAware Approximate
Fri 08:54:00 AM 32.3640 -64.6787 90° East  Level Estimated
Fri 08:55:00 AM 32.3640 -64.6787 90° East  Level Estimated
Fri 08:56:00 AM 32.3640 -64.6787 90° East  Level Estimated
Fri 08:57:00 AM 32.3640 -64.6787 90° East  Level Estimated
Fri 08:58:00 AM 32.3640 -64.6787 90° East  Level Estimated
Fri 08:59:00 AM 32.3640 -64.6787 90° East  Level Estimated
Fri 09:00:00 AM 32.3640 -64.6787 90° East  Level Estimated
Fri 09:01:00 AM 32.3640 -64.6787 90° East  Level Estimated
Fri 09:02:00 AM 32.3640 -64.6787 90° East  Level Estimated
Fri 09:03:00 AM 32.3640 -64.6787 90° East  Level Estimated
Fri 09:04:00 AM 32.3640 -64.6787 90° East  Level Estimated
Fri 09:05:00 AM 32.3640 -64.6787 90° East  Level Estimated

Login

Don't have an account? Register now (free) for customized features, flight alerts, and more!